sensor_id;sensor_type;location;lat;lon;timestamp;P1;durP1;ratioP1;P2;durP2;ratioP2
2956;SDS011;1488;51.548;7.222;2023-12-20T00:00:21;1.57;;;1.13;;
2956;SDS011;1488;51.548;7.222;2023-12-20T00:02:50;1.70;;;1.30;;
2956;SDS011;1488;51.548;7.222;2023-12-20T00:05:16;2.10;;;0.80;;
2956;SDS011;1488;51.548;7.222;2023-12-20T00:07:43;1.23;;;1.10;;
2956;SDS011;1488;51.548;7.222;2023-12-20T00:10:10;1.00;;;0.80;;
2956;SDS011;1488;51.548;7.222;2023-12-20T00:12:38;1.30;;;1.20;;
2956;SDS011;1488;51.548;7.222;2023-12-20T00:15:06;1.10;;;0.97;;
2956;SDS011;1488;51.548;7.222;2023-12-20T00:17:33;1.77;;;1.40;;
2956;SDS011;1488;51.548;7.222;2023-12-20T00:20:00;1.30;;;1.03;;
2956;SDS011;1488;51.548;7.222;2023-12-20T00:22:27;1.20;;;1.03;;
2956;SDS011;1488;51.548;7.222;2023-12-20T00:24:53;1.10;;;0.90;;
2956;SDS011;1488;51.548;7.222;2023-12-20T00:27:20;1.67;;;1.00;;
2956;SDS011;1488;51.548;7.222;2023-12-20T00:29:48;2.80;;;1.10;;
2956;SDS011;1488;51.548;7.222;2023-12-20T00:32:15;1.70;;;0.87;;
2956;SDS011;1488;51.548;7.222;2023-12-20T00:34:42;1.20;;;1.10;;
2956;SDS011;1488;51.548;7.222;2023-12-20T00:37:11;1.10;;;1.00;;
2956;SDS011;1488;51.548;7.222;2023-12-20T00:39:37;1.10;;;1.00;;
2956;SDS011;1488;51.548;7.222;2023-12-20T00:42:04;1.60;;;1.00;;
2956;SDS011;1488;51.548;7.222;2023-12-20T00:44:31;1.10;;;0.90;;
2956;SDS011;1488;51.548;7.222;2023-12-20T00:46:58;1.10;;;0.90;;
2956;SDS011;1488;51.548;7.222;2023-12-20T00:49:25;1.13;;;0.90;;
2956;SDS011;1488;51.548;7.222;2023-12-20T00:51:51;1.30;;;1.00;;
2956;SDS011;1488;51.548;7.222;2023-12-20T00:54:19;1.30;;;0.97;;
2956;SDS011;1488;51.548;7.222;2023-12-20T00:56:46;1.40;;;1.10;;
2956;SDS011;1488;51.548;7.222;2023-12-20T00:59:13;1.00;;;0.80;;
2956;SDS011;1488;51.548;7.222;2023-12-20T01:01:40;1.20;;;1.07;;
2956;SDS011;1488;51.548;7.222;2023-12-20T01:04:07;1.57;;;1.10;;
2956;SDS011;1488;51.548;7.222;2023-12-20T01:06:33;1.07;;;0.80;;
2956;SDS011;1488;51.548;7.222;2023-12-20T01:09:00;1.10;;;0.80;;
2956;SDS011;1488;51.548;7.222;2023-12-20T01:11:29;1.30;;;0.80;;
2956;SDS011;1488;51.548;7.222;2023-12-20T01:13:56;1.00;;;0.80;;
2956;SDS011;1488;51.548;7.222;2023-12-20T01:16:22;1.97;;;0.93;;
2956;SDS011;1488;51.548;7.222;2023-12-20T01:18:49;1.10;;;1.00;;
2956;SDS011;1488;51.548;7.222;2023-12-20T01:21:16;1.10;;;0.97;;
2956;SDS011;1488;51.548;7.222;2023-12-20T01:23:42;1.77;;;1.00;;
2956;SDS011;1488;51.548;7.222;2023-12-20T01:26:09;1.40;;;0.87;;
2956;SDS011;1488;51.548;7.222;2023-12-20T01:28:38;1.10;;;0.90;;
2956;SDS011;1488;51.548;7.222;2023-12-20T01:31:04;1.60;;;0.80;;
2956;SDS011;1488;51.548;7.222;2023-12-20T01:33:31;1.10;;;0.97;;
2956;SDS011;1488;51.548;7.222;2023-12-20T01:35:58;1.00;;;0.90;;
2956;SDS011;1488;51.548;7.222;2023-12-20T01:38:25;1.07;;;0.90;;
2956;SDS011;1488;51.548;7.222;2023-12-20T01:40:51;1.10;;;1.00;;
2956;SDS011;1488;51.548;7.222;2023-12-20T01:43:18;1.10;;;0.87;;
2956;SDS011;1488;51.548;7.222;2023-12-20T01:45:46;1.10;;;0.90;;
2956;SDS011;1488;51.548;7.222;2023-12-20T01:48:13;1.13;;;0.83;;
2956;SDS011;1488;51.548;7.222;2023-12-20T01:50:41;1.10;;;0.80;;
2956;SDS011;1488;51.548;7.222;2023-12-20T01:53:09;1.00;;;0.80;;
2956;SDS011;1488;51.548;7.222;2023-12-20T01:55:38;1.00;;;0.80;;
2956;SDS011;1488;51.548;7.222;2023-12-20T01:58:07;1.10;;;0.97;;
2956;SDS011;1488;51.548;7.222;2023-12-20T02:00:35;1.07;;;0.77;;
2956;SDS011;1488;51.548;7.222;2023-12-20T02:03:04;1.03;;;0.77;;
2956;SDS011;1488;51.548;7.222;2023-12-20T02:05:31;1.30;;;1.00;;
2956;SDS011;1488;51.548;7.222;2023-12-20T02:07:58;1.10;;;0.90;;
2956;SDS011;1488;51.548;7.222;2023-12-20T02:10:25;1.17;;;0.83;;
2956;SDS011;1488;51.548;7.222;2023-12-20T02:12:54;1.20;;;0.87;;
2956;SDS011;1488;51.548;7.222;2023-12-20T02:15:20;1.20;;;1.00;;
2956;SDS011;1488;51.548;7.222;2023-12-20T02:17:47;1.10;;;0.80;;
2956;SDS011;1488;51.548;7.222;2023-12-20T02:20:16;1.07;;;0.90;;
2956;SDS011;1488;51.548;7.222;2023-12-20T02:22:44;1.30;;;0.90;;
2956;SDS011;1488;51.548;7.222;2023-12-20T02:25:11;1.20;;;1.00;;
2956;SDS011;1488;51.548;7.222;2023-12-20T02:27:38;1.10;;;0.80;;
2956;SDS011;1488;51.548;7.222;2023-12-20T02:30:06;1.00;;;0.70;;
2956;SDS011;1488;51.548;7.222;2023-12-20T02:32:34;1.00;;;0.80;;
2956;SDS011;1488;51.548;7.222;2023-12-20T02:35:01;1.00;;;0.80;;
2956;SDS011;1488;51.548;7.222;2023-12-20T02:37:27;1.33;;;0.83;;
2956;SDS011;1488;51.548;7.222;2023-12-20T02:39:55;1.63;;;1.03;;
2956;SDS011;1488;51.548;7.222;2023-12-20T02:42:22;1.00;;;0.83;;
2956;SDS011;1488;51.548;7.222;2023-12-20T02:44:49;1.20;;;0.90;;
2956;SDS011;1488;51.548;7.222;2023-12-20T02:47:16;1.20;;;0.90;;
2956;SDS011;1488;51.548;7.222;2023-12-20T02:49:43;1.43;;;0.90;;
2956;SDS011;1488;51.548;7.222;2023-12-20T02:52:09;1.10;;;0.80;;
2956;SDS011;1488;51.548;7.222;2023-12-20T02:54:36;1.10;;;0.87;;
2956;SDS011;1488;51.548;7.222;2023-12-20T02:57:04;1.40;;;0.80;;
2956;SDS011;1488;51.548;7.222;2023-12-20T02:59:32;1.20;;;0.80;;
2956;SDS011;1488;51.548;7.222;2023-12-20T03:01:58;1.40;;;0.93;;
2956;SDS011;1488;51.548;7.222;2023-12-20T03:04:25;1.87;;;0.83;;
2956;SDS011;1488;51.548;7.222;2023-12-20T03:06:52;1.80;;;1.00;;
2956;SDS011;1488;51.548;7.222;2023-12-20T03:09:19;1.20;;;1.00;;
2956;SDS011;1488;51.548;7.222;2023-12-20T03:11:45;1.27;;;1.10;;
2956;SDS011;1488;51.548;7.222;2023-12-20T03:14:13;1.50;;;0.80;;
2956;SDS011;1488;51.548;7.222;2023-12-20T03:16:40;1.10;;;0.90;;
2956;SDS011;1488;51.548;7.222;2023-12-20T03:19:07;1.43;;;0.93;;
2956;SDS011;1488;51.548;7.222;2023-12-20T03:21:34;1.30;;;0.90;;
2956;SDS011;1488;51.548;7.222;2023-12-20T03:24:00;1.00;;;0.80;;
2956;SDS011;1488;51.548;7.222;2023-12-20T03:26:27;1.10;;;0.90;;
2956;SDS011;1488;51.548;7.222;2023-12-20T03:28:54;1.10;;;0.80;;
2956;SDS011;1488;51.548;7.222;2023-12-20T03:31:22;1.30;;;0.90;;
2956;SDS011;1488;51.548;7.222;2023-12-20T03:33:49;1.13;;;0.90;;
2956;SDS011;1488;51.548;7.222;2023-12-20T03:36:17;1.00;;;0.70;;
2956;SDS011;1488;51.548;7.222;2023-12-20T03:38:44;1.20;;;0.80;;
2956;SDS011;1488;51.548;7.222;2023-12-20T03:41:11;1.20;;;0.90;;
2956;SDS011;1488;51.548;7.222;2023-12-20T03:43:37;1.40;;;1.00;;
2956;SDS011;1488;51.548;7.222;2023-12-20T03:46:04;2.07;;;0.80;;
2956;SDS011;1488;51.548;7.222;2023-12-20T03:48:32;1.40;;;0.80;;
2956;SDS011;1488;51.548;7.222;2023-12-20T03:50:59;1.33;;;1.20;;
2956;SDS011;1488;51.548;7.222;2023-12-20T03:53:26;1.00;;;0.67;;
2956;SDS011;1488;51.548;7.222;2023-12-20T03:55:53;1.10;;;0.97;;
2956;SDS011;1488;51.548;7.222;2023-12-20T03:58:19;1.03;;;0.80;;
2956;SDS011;1488;51.548;7.222;2023-12-20T04:00:46;1.20;;;0.80;;
2956;SDS011;1488;51.548;7.222;2023-12-20T04:03:13;1.00;;;0.70;;
2956;SDS011;1488;51.548;7.222;2023-12-20T04:05:41;1.20;;;0.90;;
2956;SDS011;1488;51.548;7.222;2023-12-20T04:08:08;1.20;;;0.77;;
2956;SDS011;1488;51.548;7.222;2023-12-20T04:10:35;1.10;;;0.83;;
2956;SDS011;1488;51.548;7.222;2023-12-20T04:13:02;1.10;;;0.87;;
2956;SDS011;1488;51.548;7.222;2023-12-20T04:15:29;1.20;;;1.03;;
2956;SDS011;1488;51.548;7.222;2023-12-20T04:17:56;1.00;;;0.80;;
2956;SDS011;1488;51.548;7.222;2023-12-20T04:20:23;1.20;;;0.83;;
2956;SDS011;1488;51.548;7.222;2023-12-20T04:22:51;1.50;;;1.10;;
2956;SDS011;1488;51.548;7.222;2023-12-20T04:25:17;1.53;;;0.90;;
2956;SDS011;1488;51.548;7.222;2023-12-20T04:27:44;1.40;;;1.00;;
2956;SDS011;1488;51.548;7.222;2023-12-20T04:30:11;1.00;;;0.70;;
2956;SDS011;1488;51.548;7.222;2023-12-20T04:32:38;1.43;;;0.90;;
2956;SDS011;1488;51.548;7.222;2023-12-20T04:35:05;1.10;;;0.80;;
2956;SDS011;1488;51.548;7.222;2023-12-20T04:37:31;1.20;;;0.97;;
2956;SDS011;1488;51.548;7.222;2023-12-20T04:39:59;1.63;;;0.80;;
2956;SDS011;1488;51.548;7.222;2023-12-20T04:42:26;1.10;;;0.80;;
2956;SDS011;1488;51.548;7.222;2023-12-20T04:44:53;2.67;;;0.80;;
2956;SDS011;1488;51.548;7.222;2023-12-20T04:47:20;1.00;;;0.80;;
2956;SDS011;1488;51.548;7.222;2023-12-20T04:49:46;1.27;;;0.90;;
2956;SDS011;1488;51.548;7.222;2023-12-20T04:52:13;1.13;;;0.90;;
2956;SDS011;1488;51.548;7.222;2023-12-20T04:54:40;1.63;;;1.03;;
2956;SDS011;1488;51.548;7.222;2023-12-20T04:57:08;1.57;;;0.80;;
2956;SDS011;1488;51.548;7.222;2023-12-20T04:59:35;1.13;;;0.70;;
2956;SDS011;1488;51.548;7.222;2023-12-20T05:02:02;1.93;;;0.80;;
2956;SDS011;1488;51.548;7.222;2023-12-20T05:04:29;2.60;;;0.90;;
2956;SDS011;1488;51.548;7.222;2023-12-20T05:06:56;1.30;;;0.90;;
2956;SDS011;1488;51.548;7.222;2023-12-20T05:09:22;1.63;;;0.93;;
2956;SDS011;1488;51.548;7.222;2023-12-20T05:11:49;2.17;;;1.10;;
2956;SDS011;1488;51.548;7.222;2023-12-20T05:14:17;1.10;;;0.90;;
2956;SDS011;1488;51.548;7.222;2023-12-20T05:16:44;1.20;;;1.00;;
2956;SDS011;1488;51.548;7.222;2023-12-20T05:19:11;1.20;;;1.10;;
2956;SDS011;1488;51.548;7.222;2023-12-20T05:21:37;1.10;;;0.80;;
2956;SDS011;1488;51.548;7.222;2023-12-20T05:24:04;1.10;;;0.90;;
2956;SDS011;1488;51.548;7.222;2023-12-20T05:26:31;1.00;;;0.80;;
2956;SDS011;1488;51.548;7.222;2023-12-20T05:28:58;1.20;;;1.10;;
2956;SDS011;1488;51.548;7.222;2023-12-20T05:31:26;1.00;;;0.83;;
2956;SDS011;1488;51.548;7.222;2023-12-20T05:33:53;1.47;;;1.30;;
2956;SDS011;1488;51.548;7.222;2023-12-20T05:36:20;1.30;;;1.00;;
2956;SDS011;1488;51.548;7.222;2023-12-20T05:38:47;1.10;;;0.80;;
2956;SDS011;1488;51.548;7.222;2023-12-20T05:41:13;1.10;;;0.80;;
2956;SDS011;1488;51.548;7.222;2023-12-20T05:43:40;1.30;;;0.80;;
2956;SDS011;1488;51.548;7.222;2023-12-20T05:46:07;1.20;;;0.80;;
2956;SDS011;1488;51.548;7.222;2023-12-20T05:48:37;1.10;;;0.90;;
2956;SDS011;1488;51.548;7.222;2023-12-20T05:51:04;1.20;;;0.90;;
2956;SDS011;1488;51.548;7.222;2023-12-20T05:53:31;1.50;;;0.97;;
2956;SDS011;1488;51.548;7.222;2023-12-20T05:55:58;1.63;;;0.90;;
2956;SDS011;1488;51.548;7.222;2023-12-20T05:58:26;3.20;;;1.20;;
2956;SDS011;1488;51.548;7.222;2023-12-20T06:00:54;1.43;;;1.00;;
2956;SDS011;1488;51.548;7.222;2023-12-20T06:03:21;2.50;;;1.40;;
2956;SDS011;1488;51.548;7.222;2023-12-20T06:05:49;1.10;;;0.80;;
2956;SDS011;1488;51.548;7.222;2023-12-20T06:08:17;1.70;;;0.97;;
2956;SDS011;1488;51.548;7.222;2023-12-20T06:10:44;1.67;;;1.10;;
2956;SDS011;1488;51.548;7.222;2023-12-20T06:13:10;2.50;;;1.27;;
2956;SDS011;1488;51.548;7.222;2023-12-20T06:15:38;2.40;;;1.87;;
2956;SDS011;1488;51.548;7.222;2023-12-20T06:18:05;3.83;;;1.70;;
2956;SDS011;1488;51.548;7.222;2023-12-20T06:20:31;2.73;;;2.03;;
2956;SDS011;1488;51.548;7.222;2023-12-20T06:23:00;2.20;;;2.00;;
2956;SDS011;1488;51.548;7.222;2023-12-20T06:25:27;3.33;;;2.03;;
2956;SDS011;1488;51.548;7.222;2023-12-20T06:27:53;2.33;;;2.13;;
2956;SDS011;1488;51.548;7.222;2023-12-20T06:30:20;2.17;;;1.60;;
2956;SDS011;1488;51.548;7.222;2023-12-20T06:32:47;2.47;;;2.27;;
2956;SDS011;1488;51.548;7.222;2023-12-20T06:35:14;4.30;;;2.33;;
2956;SDS011;1488;51.548;7.222;2023-12-20T06:37:41;1.93;;;1.77;;
2956;SDS011;1488;51.548;7.222;2023-12-20T06:40:10;3.93;;;2.37;;
2956;SDS011;1488;51.548;7.222;2023-12-20T06:42:37;2.27;;;2.07;;
2956;SDS011;1488;51.548;7.222;2023-12-20T06:45:08;2.60;;;2.33;;
2956;SDS011;1488;51.548;7.222;2023-12-20T06:47:35;2.30;;;2.10;;
2956;SDS011;1488;51.548;7.222;2023-12-20T06:50:02;3.63;;;2.03;;
2956;SDS011;1488;51.548;7.222;2023-12-20T06:52:29;2.97;;;2.40;;
2956;SDS011;1488;51.548;7.222;2023-12-20T06:54:56;2.63;;;2.23;;
2956;SDS011;1488;51.548;7.222;2023-12-20T06:57:24;3.97;;;2.63;;
2956;SDS011;1488;51.548;7.222;2023-12-20T06:59:51;2.80;;;2.60;;
2956;SDS011;1488;51.548;7.222;2023-12-20T07:02:18;2.67;;;2.27;;
2956;SDS011;1488;51.548;7.222;2023-12-20T07:04:46;3.00;;;1.93;;
2956;SDS011;1488;51.548;7.222;2023-12-20T07:07:12;2.30;;;2.10;;
2956;SDS011;1488;51.548;7.222;2023-12-20T07:09:39;3.00;;;1.67;;
2956;SDS011;1488;51.548;7.222;2023-12-20T07:12:07;2.73;;;1.93;;
2956;SDS011;1488;51.548;7.222;2023-12-20T07:14:36;2.60;;;2.10;;
2956;SDS011;1488;51.548;7.222;2023-12-20T07:17:02;2.60;;;2.27;;
2956;SDS011;1488;51.548;7.222;2023-12-20T07:19:29;4.13;;;2.27;;
2956;SDS011;1488;51.548;7.222;2023-12-20T07:21:57;1.90;;;1.70;;
2956;SDS011;1488;51.548;7.222;2023-12-20T07:24:24;3.03;;;2.13;;
2956;SDS011;1488;51.548;7.222;2023-12-20T07:26:51;3.47;;;2.40;;
2956;SDS011;1488;51.548;7.222;2023-12-20T07:29:17;3.20;;;2.30;;
2956;SDS011;1488;51.548;7.222;2023-12-20T07:31:45;2.70;;;2.00;;
2956;SDS011;1488;51.548;7.222;2023-12-20T07:34:12;3.50;;;2.43;;
2956;SDS011;1488;51.548;7.222;2023-12-20T07:36:39;2.90;;;2.30;;
2956;SDS011;1488;51.548;7.222;2023-12-20T07:39:06;2.23;;;1.93;;
2956;SDS011;1488;51.548;7.222;2023-12-20T07:41:32;2.73;;;1.90;;
2956;SDS011;1488;51.548;7.222;2023-12-20T07:43:59;3.53;;;1.97;;
2956;SDS011;1488;51.548;7.222;2023-12-20T07:46:26;4.03;;;2.70;;
2956;SDS011;1488;51.548;7.222;2023-12-20T07:48:54;3.50;;;2.70;;
2956;SDS011;1488;51.548;7.222;2023-12-20T07:51:21;2.50;;;2.03;;
2956;SDS011;1488;51.548;7.222;2023-12-20T07:53:47;2.30;;;2.10;;
2956;SDS011;1488;51.548;7.222;2023-12-20T07:56:14;3.77;;;2.17;;
2956;SDS011;1488;51.548;7.222;2023-12-20T07:58:41;3.10;;;2.30;;
2956;SDS011;1488;51.548;7.222;2023-12-20T08:01:08;4.33;;;2.20;;
2956;SDS011;1488;51.548;7.222;2023-12-20T08:03:36;2.70;;;2.50;;
2956;SDS011;1488;51.548;7.222;2023-12-20T08:06:04;3.37;;;2.40;;
2956;SDS011;1488;51.548;7.222;2023-12-20T08:08:31;1.90;;;1.80;;
2956;SDS011;1488;51.548;7.222;2023-12-20T08:10:58;2.63;;;2.20;;
2956;SDS011;1488;51.548;7.222;2023-12-20T08:13:25;2.23;;;1.90;;
2956;SDS011;1488;51.548;7.222;2023-12-20T08:15:52;2.10;;;1.90;;
2956;SDS011;1488;51.548;7.222;2023-12-20T08:18:20;2.27;;;2.07;;
2956;SDS011;1488;51.548;7.222;2023-12-20T08:20:48;3.00;;;2.07;;
2956;SDS011;1488;51.548;7.222;2023-12-20T08:23:16;3.23;;;1.90;;
2956;SDS011;1488;51.548;7.222;2023-12-20T08:25:43;3.70;;;2.13;;
2956;SDS011;1488;51.548;7.222;2023-12-20T08:28:09;3.17;;;2.20;;
2956;SDS011;1488;51.548;7.222;2023-12-20T08:30:36;2.00;;;1.80;;
2956;SDS011;1488;51.548;7.222;2023-12-20T08:33:03;3.00;;;1.93;;
2956;SDS011;1488;51.548;7.222;2023-12-20T08:35:32;4.13;;;2.00;;
2956;SDS011;1488;51.548;7.222;2023-12-20T08:38:00;2.57;;;2.17;;
2956;SDS011;1488;51.548;7.222;2023-12-20T08:40:28;1.90;;;1.80;;
2956;SDS011;1488;51.548;7.222;2023-12-20T08:42:55;2.10;;;1.70;;
2956;SDS011;1488;51.548;7.222;2023-12-20T08:45:22;3.17;;;2.27;;
2956;SDS011;1488;51.548;7.222;2023-12-20T08:47:49;2.57;;;1.97;;
2956;SDS011;1488;51.548;7.222;2023-12-20T08:50:16;1.80;;;1.70;;
2956;SDS011;1488;51.548;7.222;2023-12-20T08:52:43;2.57;;;1.97;;
2956;SDS011;1488;51.548;7.222;2023-12-20T08:55:10;2.73;;;1.50;;
2956;SDS011;1488;51.548;7.222;2023-12-20T08:57:39;2.30;;;1.60;;
2956;SDS011;1488;51.548;7.222;2023-12-20T09:00:06;3.13;;;1.90;;
2956;SDS011;1488;51.548;7.222;2023-12-20T09:02:34;2.07;;;1.60;;
2956;SDS011;1488;51.548;7.222;2023-12-20T09:05:02;2.73;;;2.00;;
2956;SDS011;1488;51.548;7.222;2023-12-20T09:07:29;4.23;;;1.97;;
2956;SDS011;1488;51.548;7.222;2023-12-20T09:09:57;2.67;;;1.60;;
2956;SDS011;1488;51.548;7.222;2023-12-20T09:12:24;4.13;;;2.00;;
2956;SDS011;1488;51.548;7.222;2023-12-20T09:14:52;3.07;;;2.20;;
2956;SDS011;1488;51.548;7.222;2023-12-20T09:17:19;3.87;;;1.80;;
2956;SDS011;1488;51.548;7.222;2023-12-20T09:19:48;3.50;;;2.03;;
2956;SDS011;1488;51.548;7.222;2023-12-20T09:22:17;5.10;;;1.90;;
2956;SDS011;1488;51.548;7.222;2023-12-20T09:24:44;2.40;;;1.80;;
2956;SDS011;1488;51.548;7.222;2023-12-20T09:27:11;2.80;;;1.80;;
2956;SDS011;1488;51.548;7.222;2023-12-20T09:29:37;2.93;;;1.80;;
2956;SDS011;1488;51.548;7.222;2023-12-20T09:32:06;2.63;;;2.43;;
2956;SDS011;1488;51.548;7.222;2023-12-20T09:34:33;3.77;;;1.67;;
2956;SDS011;1488;51.548;7.222;2023-12-20T09:36:59;3.73;;;1.87;;
2956;SDS011;1488;51.548;7.222;2023-12-20T09:39:28;2.47;;;1.53;;
2956;SDS011;1488;51.548;7.222;2023-12-20T09:41:59;2.40;;;1.77;;
2956;SDS011;1488;51.548;7.222;2023-12-20T09:44:27;3.50;;;1.70;;
2956;SDS011;1488;51.548;7.222;2023-12-20T09:46:55;2.07;;;1.60;;
2956;SDS011;1488;51.548;7.222;2023-12-20T09:49:24;3.53;;;1.67;;
2956;SDS011;1488;51.548;7.222;2023-12-20T09:51:53;3.77;;;1.60;;
2956;SDS011;1488;51.548;7.222;2023-12-20T09:54:21;2.07;;;1.50;;
2956;SDS011;1488;51.548;7.222;2023-12-20T09:56:48;2.67;;;1.70;;
2956;SDS011;1488;51.548;7.222;2023-12-20T09:59:15;5.63;;;2.20;;
2956;SDS011;1488;51.548;7.222;2023-12-20T10:01:42;6.47;;;1.80;;
2956;SDS011;1488;51.548;7.222;2023-12-20T10:04:10;3.77;;;1.70;;
2956;SDS011;1488;51.548;7.222;2023-12-20T10:06:40;3.90;;;2.20;;
2956;SDS011;1488;51.548;7.222;2023-12-20T10:09:07;2.67;;;1.80;;
2956;SDS011;1488;51.548;7.222;2023-12-20T10:11:35;7.40;;;1.63;;
2956;SDS011;1488;51.548;7.222;2023-12-20T10:14:03;3.70;;;1.83;;
2956;SDS011;1488;51.548;7.222;2023-12-20T10:16:30;3.10;;;1.70;;
2956;SDS011;1488;51.548;7.222;2023-12-20T10:18:58;2.70;;;1.67;;
2956;SDS011;1488;51.548;7.222;2023-12-20T10:21:26;2.90;;;1.60;;
2956;SDS011;1488;51.548;7.222;2023-12-20T10:23:54;6.20;;;1.53;;
2956;SDS011;1488;51.548;7.222;2023-12-20T10:26:22;2.43;;;1.60;;
2956;SDS011;1488;51.548;7.222;2023-12-20T10:28:50;3.07;;;1.60;;
2956;SDS011;1488;51.548;7.222;2023-12-20T10:31:27;4.43;;;2.00;;
2956;SDS011;1488;51.548;7.222;2023-12-20T10:33:55;2.80;;;1.70;;
2956;SDS011;1488;51.548;7.222;2023-12-20T10:36:23;4.07;;;1.50;;
2956;SDS011;1488;51.548;7.222;2023-12-20T10:38:51;3.17;;;1.60;;
2956;SDS011;1488;51.548;7.222;2023-12-20T10:41:22;3.30;;;2.07;;
2956;SDS011;1488;51.548;7.222;2023-12-20T10:43:53;5.97;;;1.33;;
2956;SDS011;1488;51.548;7.222;2023-12-20T13:56:45;3.10;;;1.83;;
2956;SDS011;1488;51.548;7.222;2023-12-20T13:59:12;3.50;;;1.60;;
2956;SDS011;1488;51.548;7.222;2023-12-20T14:01:40;2.40;;;1.50;;
2956;SDS011;1488;51.548;7.222;2023-12-20T14:04:07;1.30;;;1.00;;
2956;SDS011;1488;51.548;7.222;2023-12-20T14:06:33;2.50;;;1.37;;
2956;SDS011;1488;51.548;7.222;2023-12-20T14:09:00;3.63;;;1.27;;
2956;SDS011;1488;51.548;7.222;2023-12-20T14:11:28;4.60;;;2.00;;
2956;SDS011;1488;51.548;7.222;2023-12-20T14:13:56;3.67;;;1.70;;
2956;SDS011;1488;51.548;7.222;2023-12-20T14:16:23;3.40;;;1.30;;
2956;SDS011;1488;51.548;7.222;2023-12-20T14:18:50;18.13;;;1.80;;
2956;SDS011;1488;51.548;7.222;2023-12-20T14:21:18;3.20;;;1.43;;
2956;SDS011;1488;51.548;7.222;2023-12-20T14:23:45;6.40;;;1.40;;
2956;SDS011;1488;51.548;7.222;2023-12-20T14:26:12;4.47;;;1.57;;
2956;SDS011;1488;51.548;7.222;2023-12-20T14:28:40;7.57;;;2.10;;
2956;SDS011;1488;51.548;7.222;2023-12-20T14:31:08;3.10;;;1.30;;
2956;SDS011;1488;51.548;7.222;2023-12-20T14:33:36;3.57;;;1.40;;
2956;SDS011;1488;51.548;7.222;2023-12-20T14:36:04;5.47;;;1.73;;
2956;SDS011;1488;51.548;7.222;2023-12-20T14:38:31;3.33;;;1.17;;
2956;SDS011;1488;51.548;7.222;2023-12-20T14:40:58;6.13;;;1.43;;
2956;SDS011;1488;51.548;7.222;2023-12-20T14:43:25;5.23;;;1.13;;
2956;SDS011;1488;51.548;7.222;2023-12-20T14:45:52;1.40;;;1.30;;
2956;SDS011;1488;51.548;7.222;2023-12-20T14:48:20;2.23;;;1.20;;
2956;SDS011;1488;51.548;7.222;2023-12-20T14:50:47;3.87;;;1.43;;
2956;SDS011;1488;51.548;7.222;2023-12-20T14:53:15;5.60;;;1.47;;
2956;SDS011;1488;51.548;7.222;2023-12-20T14:55:43;1.67;;;1.40;;
2956;SDS011;1488;51.548;7.222;2023-12-20T14:58:11;2.07;;;1.07;;
2956;SDS011;1488;51.548;7.222;2023-12-20T15:00:39;5.73;;;1.43;;
2956;SDS011;1488;51.548;7.222;2023-12-20T15:03:06;3.47;;;1.60;;
2956;SDS011;1488;51.548;7.222;2023-12-20T15:05:35;1.40;;;1.30;;
2956;SDS011;1488;51.548;7.222;2023-12-20T15:08:02;1.90;;;1.10;;
2956;SDS011;1488;51.548;7.222;2023-12-20T15:10:29;7.63;;;1.20;;
2956;SDS011;1488;51.548;7.222;2023-12-20T15:12:56;6.43;;;1.30;;
2956;SDS011;1488;51.548;7.222;2023-12-20T15:15:22;10.50;;;1.47;;
2956;SDS011;1488;51.548;7.222;2023-12-20T15:17:49;2.70;;;1.17;;
2956;SDS011;1488;51.548;7.222;2023-12-20T15:20:16;4.07;;;1.80;;
2956;SDS011;1488;51.548;7.222;2023-12-20T15:22:44;2.90;;;1.40;;
2956;SDS011;1488;51.548;7.222;2023-12-20T15:25:11;5.43;;;1.87;;
2956;SDS011;1488;51.548;7.222;2023-12-20T15:27:44;8.07;;;1.43;;
2956;SDS011;1488;51.548;7.222;2023-12-20T15:30:14;2.57;;;1.50;;
2956;SDS011;1488;51.548;7.222;2023-12-20T15:32:41;7.20;;;2.07;;
2956;SDS011;1488;51.548;7.222;2023-12-20T15:35:08;3.47;;;1.10;;
2956;SDS011;1488;51.548;7.222;2023-12-20T15:37:35;3.30;;;1.43;;
2956;SDS011;1488;51.548;7.222;2023-12-20T15:40:03;8.53;;;1.70;;
2956;SDS011;1488;51.548;7.222;2023-12-20T15:42:30;3.00;;;1.40;;
2956;SDS011;1488;51.548;7.222;2023-12-20T15:45:01;6.47;;;1.43;;
2956;SDS011;1488;51.548;7.222;2023-12-20T15:47:27;5.70;;;1.40;;
2956;SDS011;1488;51.548;7.222;2023-12-20T15:49:54;4.30;;;1.43;;
2956;SDS011;1488;51.548;7.222;2023-12-20T15:52:21;4.93;;;1.50;;
2956;SDS011;1488;51.548;7.222;2023-12-20T15:54:48;2.50;;;1.53;;
2956;SDS011;1488;51.548;7.222;2023-12-20T15:57:18;1.50;;;1.13;;
2956;SDS011;1488;51.548;7.222;2023-12-20T15:59:44;1.87;;;1.47;;
2956;SDS011;1488;51.548;7.222;2023-12-20T16:02:11;7.53;;;1.97;;
2956;SDS011;1488;51.548;7.222;2023-12-20T16:04:38;5.40;;;1.60;;
2956;SDS011;1488;51.548;7.222;2023-12-20T16:07:04;3.20;;;1.30;;
2956;SDS011;1488;51.548;7.222;2023-12-20T16:09:31;3.37;;;1.30;;
2956;SDS011;1488;51.548;7.222;2023-12-20T16:11:58;3.63;;;1.63;;
2956;SDS011;1488;51.548;7.222;2023-12-20T16:14:26;3.20;;;1.67;;
2956;SDS011;1488;51.548;7.222;2023-12-20T16:16:54;2.57;;;1.40;;
2956;SDS011;1488;51.548;7.222;2023-12-20T16:19:21;11.27;;;1.80;;
2956;SDS011;1488;51.548;7.222;2023-12-20T16:21:48;2.90;;;1.50;;
2956;SDS011;1488;51.548;7.222;2023-12-20T16:24:15;1.70;;;1.27;;
2956;SDS011;1488;51.548;7.222;2023-12-20T16:26:41;2.00;;;1.20;;
2956;SDS011;1488;51.548;7.222;2023-12-20T16:29:08;1.70;;;1.23;;
2956;SDS011;1488;51.548;7.222;2023-12-20T16:31:38;3.20;;;1.20;;
2956;SDS011;1488;51.548;7.222;2023-12-20T16:34:05;2.47;;;1.20;;
2956;SDS011;1488;51.548;7.222;2023-12-20T16:36:39;2.53;;;1.20;;
2956;SDS011;1488;51.548;7.222;2023-12-20T16:39:15;3.10;;;1.43;;
2956;SDS011;1488;51.548;7.222;2023-12-20T16:41:42;2.90;;;1.10;;
2956;SDS011;1488;51.548;7.222;2023-12-20T16:44:08;9.87;;;1.60;;
2956;SDS011;1488;51.548;7.222;2023-12-20T16:46:35;4.27;;;1.30;;
2956;SDS011;1488;51.548;7.222;2023-12-20T16:49:03;2.40;;;1.30;;
2956;SDS011;1488;51.548;7.222;2023-12-20T16:51:30;1.97;;;1.40;;
2956;SDS011;1488;51.548;7.222;2023-12-20T16:53:57;1.67;;;1.10;;
2956;SDS011;1488;51.548;7.222;2023-12-20T16:56:23;4.27;;;1.33;;
2956;SDS011;1488;51.548;7.222;2023-12-20T16:58:50;3.00;;;1.40;;
2956;SDS011;1488;51.548;7.222;2023-12-20T17:01:17;2.20;;;1.47;;
2956;SDS011;1488;51.548;7.222;2023-12-20T17:03:44;1.90;;;1.50;;
2956;SDS011;1488;51.548;7.222;2023-12-20T17:06:12;5.50;;;1.10;;
2956;SDS011;1488;51.548;7.222;2023-12-20T17:08:40;2.00;;;1.43;;
2956;SDS011;1488;51.548;7.222;2023-12-20T17:11:08;4.77;;;1.50;;
2956;SDS011;1488;51.548;7.222;2023-12-20T17:13:35;1.60;;;1.00;;
2956;SDS011;1488;51.548;7.222;2023-12-20T17:16:02;2.50;;;1.37;;
2956;SDS011;1488;51.548;7.222;2023-12-20T17:18:29;1.37;;;1.20;;
2956;SDS011;1488;51.548;7.222;2023-12-20T17:20:56;3.30;;;1.30;;
2956;SDS011;1488;51.548;7.222;2023-12-20T17:23:24;2.30;;;1.20;;
2956;SDS011;1488;51.548;7.222;2023-12-20T17:25:50;1.87;;;1.20;;
2956;SDS011;1488;51.548;7.222;2023-12-20T17:28:17;2.20;;;1.23;;
2956;SDS011;1488;51.548;7.222;2023-12-20T17:30:44;1.50;;;1.10;;
2956;SDS011;1488;51.548;7.222;2023-12-20T17:33:11;1.77;;;1.40;;
2956;SDS011;1488;51.548;7.222;2023-12-20T17:35:37;3.23;;;1.30;;
2956;SDS011;1488;51.548;7.222;2023-12-20T17:38:04;2.60;;;1.80;;
2956;SDS011;1488;51.548;7.222;2023-12-20T17:40:32;1.70;;;1.20;;
2956;SDS011;1488;51.548;7.222;2023-12-20T17:43:01;1.63;;;1.37;;
2956;SDS011;1488;51.548;7.222;2023-12-20T17:45:26;1.90;;;1.40;;
2956;SDS011;1488;51.548;7.222;2023-12-20T17:47:53;1.97;;;1.20;;
2956;SDS011;1488;51.548;7.222;2023-12-20T17:50:20;2.33;;;1.30;;
2956;SDS011;1488;51.548;7.222;2023-12-20T17:52:47;3.07;;;1.23;;
2956;SDS011;1488;51.548;7.222;2023-12-20T17:55:13;1.80;;;1.10;;
2956;SDS011;1488;51.548;7.222;2023-12-20T17:57:41;2.70;;;1.20;;
2956;SDS011;1488;51.548;7.222;2023-12-20T18:00:12;1.97;;;1.10;;
2956;SDS011;1488;51.548;7.222;2023-12-20T18:02:40;1.70;;;1.20;;
2956;SDS011;1488;51.548;7.222;2023-12-20T18:05:07;1.47;;;1.03;;
2956;SDS011;1488;51.548;7.222;2023-12-20T18:07:34;2.30;;;1.60;;
2956;SDS011;1488;51.548;7.222;2023-12-20T18:10:00;4.03;;;1.57;;
2956;SDS011;1488;51.548;7.222;2023-12-20T18:12:29;1.63;;;1.13;;
2956;SDS011;1488;51.548;7.222;2023-12-20T18:14:57;1.30;;;0.80;;
2956;SDS011;1488;51.548;7.222;2023-12-20T18:17:25;2.20;;;1.40;;
2956;SDS011;1488;51.548;7.222;2023-12-20T18:19:52;1.40;;;1.30;;
2956;SDS011;1488;51.548;7.222;2023-12-20T18:22:19;1.97;;;1.30;;
2956;SDS011;1488;51.548;7.222;2023-12-20T18:24:45;1.37;;;1.20;;